Latest Weather Observations for Lake Grace

IDW60801

Issued at 8:23 pm WST Friday 20 July 2018 (issued every 10 minutes, with the page automatically refreshed every 10 minutes)

About weather observations | Map of weather stations | Latest weather observations for WA | Other Formats
Station Details ID: 010911 Name: LAKE GRACE Lat: -33.10 Lon: 118.46 Height: 286.0 m
Data from the previous 72 hours. | See also: Recent months at Lake Grace
Date/Time
WST
Temp
°C
App
Temp
°C
Dew
Point
°C
Rel
Hum
%
Delta-T
°C
Wind Press
QNH
hPa
Press
MSL
hPa
Rain since
9am
mm
Dir  Spd
km/h
Gust
km/h
Spd
kts
Gust
kts
20/08:00pm 13.2 7.6 5.6 60 3.6 N 24 32 13 17 1012.6 1012.8 0.0
20/07:30pm 13.6 8.8 5.7 59 3.8 NNW 20 28 11 15 1012.9 1013.1 0.0
20/07:00pm 14.5 10.0 6.3 58 4.0 NNW 19 28 10 15 1012.8 1013.0 0.0
20/06:30pm 14.2 9.5 6.1 58 3.9 N 20 26 11 14 1012.7 1012.9 0.0
20/06:00pm 14.3 10.2 6.2 58 3.9 N 17 22 9 12 1012.7 1012.9 0.0
20/05:30pm 14.3 10.9 5.7 56 4.1 N 13 15 7 8 1012.7 1012.9 0.0
20/05:00pm 16.0 11.8 5.6 50 5.1 NNW 17 24 9 13 1012.6 1012.8 0.0
20/04:30pm 16.8 11.8 4.8 45 5.8 NNW 20 32 11 17 1012.6 1012.8 0.0
20/04:00pm 17.3 12.3 4.6 43 6.1 NW 20 28 11 15 1012.8 1013.0 0.0
20/03:30pm 17.8 11.5 4.0 40 6.6 NW 26 41 14 22 1012.7 1012.9 0.0
20/03:00pm 18.0 11.7 3.5 38 6.9 NW 26 37 14 20 1012.7 1012.9 0.0
20/02:30pm 18.1 10.9 3.2 37 7.0 NW 30 43 16 23 1012.6 1012.8 0.0
20/02:15pm 17.6 10.1 3.5 39 6.7 NW 32 50 17 27 1012.8 1013.0 0.0
20/02:00pm 17.4 10.0 4.0 41 6.4 WNW 32 44 17 24 1013.0 1013.2 0.0
20/01:30pm 17.8 10.3 3.7 39 6.7 NW 32 44 17 24 1012.9 1013.1 0.0
20/01:00pm 17.5 10.6 4.5 42 6.3 NW 30 44 16 24 1013.2 1013.3 0.0
20/12:30pm 16.8 9.7 5.4 47 5.6 NNW 32 46 17 25 1013.5 1013.6 0.0
20/12:17pm 16.4 9.6 5.1 47 5.5 NNW 30 50 16 27 1013.6 1013.7 0.0
20/12:00pm 16.1 8.9 5.7 50 5.1 NNW 33 48 18 26 1013.9 1014.0 0.0
20/11:30am 15.2 8.5 5.7 53 4.6 NNW 30 39 16 21 1014.8 1015.0 0.0
20/11:00am 14.1 7.8 5.7 57 4.0 NNW 28 43 15 23 1015.5 1015.7 0.0
20/10:30am 12.7 7.0 4.9 59 3.6 NNW 24 33 13 18 1016.0 1016.2 0.0
20/10:00am 11.7 5.6 4.9 63 3.2 N 26 35 14 19 1016.2 1016.4 0.0
20/09:30am 10.4 4.7 4.8 68 2.6 N 24 32 13 17 1016.5 1016.7 0.0
20/09:00am 8.1 3.0 4.3 77 1.7 N 20 26 11 14 1017.2 1017.4 0.0
20/08:30am 6.8 1.7 4.1 83 1.2 N 20 24 11 13 1017.5 1017.7 0.0
20/08:00am 4.9 1.0 3.4 90 0.6 N 13 19 7 10 1017.7 1017.9 0.0
20/07:30am 3.0 -0.8 1.8 92 0.5 N 11 13 6 7 1017.9 1018.1 0.0
20/07:00am 2.6 -0.9 1.3 91 0.5 N 9 13 5 7 1017.9 1018.1 0.0
20/06:30am 3.1 -0.3 1.6 90 0.6 NNE 9 13 5 7 1017.9 1018.1 0.0
20/06:00am 3.4 -0.4 1.9 90 0.6 N 11 15 6 8 1017.9 1018.1 0.0
20/05:30am 3.0 -0.5 1.5 90 0.6 N 9 13 5 7 1018.4 1018.6 0.0
20/05:00am 3.1 0.0 1.5 89 0.6 N 7 11 4 6 1018.6 1018.8 0.0
20/04:30am 3.5 0.1 2.0 90 0.6 NNE 9 11 5 6 1018.6 1018.8 0.0
20/04:00am 2.4 -0.8 0.8 89 0.6 N 7 9 4 5 1019.0 1019.2 0.0
20/03:30am 2.7 -0.5 0.9 88 0.7 N 7 9 4 5 1019.4 1019.6 0.0
20/03:00am 3.1 0.2 1.2 87 0.7 N 6 9 3 5 1019.9 1020.2 0.0
20/02:30am 3.9 2.2 1.9 87 0.8 CALM 0 0 0 0 1019.8 1020.0 0.0
20/02:00am 4.0 1.2 2.0 87 0.8 NNE 6 7 3 4 1019.8 1020.0 0.0
20/01:30am 3.8 1.0 2.0 88 0.7 NNE 6 9 3 5 1020.1 1020.4 0.0
20/01:00am 2.7 0.9 0.9 88 0.7 CALM 0 0 0 0 1020.6 1020.8 0.0
20/12:30am 3.2 1.4 1.4 88 0.7 CALM 0 6 0 3 1021.1 1021.3 0.0
20/12:00am 2.8 -0.2 0.9 87 0.7 NNE 6 7 3 4 1021.4 1021.6 0.0
 
Date/Time
WST
Temp
°C
App
Temp
°C
Dew
Point
°C
Rel
Hum
%
Delta-T
°C
Wind Press
QNH
hPa
Press
MSL
hPa
Rain since
9am
mm
Dir  Spd
km/h
Gust
km/h
Spd
kts
Gust
kts
19/11:30pm 2.9 1.0 0.8 86 0.8 CALM 0 0 0 0 1021.7 1021.9 0.0
19/11:00pm 3.7 2.0 1.6 86 0.8 CALM 0 0 0 0 1022.0 1022.2 0.0
19/10:30pm 3.7 2.0 1.6 86 0.8 CALM 0 0 0 0 1022.2 1022.4 0.0
19/10:00pm 4.4 2.3 1.9 84 1.0 N 2 9 1 5 1022.7 1022.9 0.0
19/09:30pm 4.8 3.1 1.8 81 1.2 CALM 0 0 0 0 1022.6 1022.8 0.0
19/09:00pm 5.5 2.7 2.3 80 1.3 NNW 6 9 3 5 1022.7 1022.9 0.0
19/08:30pm 5.2 3.5 1.9 79 1.3 CALM 0 0 0 0 1022.8 1023.0 0.0
19/08:00pm 6.2 4.5 2.1 75 1.7 CALM 0 0 0 0 1022.9 1023.2 0.0
19/07:30pm 7.8 5.2 3.1 72 2.0 E 6 7 3 4 1022.9 1023.2 0.0
19/07:00pm 8.5 7.1 3.4 70 2.2 CALM 0 0 0 0 1022.8 1023.0 0.0
19/06:30pm 8.8 7.3 3.2 68 2.4 CALM 0 0 0 0 1022.9 1023.2 0.0
19/06:00pm 9.6 8.2 3.4 65 2.7 CALM 0 0 0 0 1022.4 1022.6 0.0
19/05:30pm 10.6 7.9 2.9 59 3.4 SSE 6 6 3 3 1022.1 1022.3 0.0
19/05:00pm 11.8 9.1 2.8 54 4.0 WSW 6 7 3 4 1022.3 1022.5 0.0
19/04:30pm 12.6 9.7 2.7 51 4.4 NNE 7 9 4 5 1022.1 1022.3 0.0
19/04:00pm 13.4 10.6 3.2 50 4.6 WNW 7 11 4 6 1022.2 1022.4 0.0
19/03:30pm 13.4 10.7 2.9 49 4.7 SSW 6 9 3 5 1022.1 1022.3 0.0
19/03:00pm 12.8 9.6 2.9 51 4.4 SSW 9 13 5 7 1022.1 1022.3 0.0
19/02:30pm 13.0 9.8 3.1 51 4.5 SW 9 15 5 8 1022.1 1022.3 0.0
19/02:00pm 13.0 10.3 2.6 49 4.6 SE 6 11 3 6 1022.2 1022.4 0.0
19/01:30pm 13.0 9.4 2.8 50 4.6 WNW 11 20 6 11 1022.7 1022.9 0.0
19/01:00pm 12.2 8.6 3.2 54 4.0 WSW 11 17 6 9 1023.0 1023.3 0.0
19/12:30pm 12.2 8.6 3.2 54 4.0 NW 11 15 6 8 1023.3 1023.6 0.0
19/12:00pm 11.6 8.3 2.6 54 3.9 SSW 9 15 5 8 1023.4 1023.7 0.0
19/11:30am 11.9 8.4 3.4 56 3.8 SE 11 17 6 9 1023.1 1023.4 0.0
19/11:00am 12.4 9.3 3.6 55 4.0 ESE 9 13 5 7 1023.8 1024.1 0.0
19/10:30am 11.1 8.3 5.2 67 2.7 SSW 9 13 5 7 1024.6 1024.8 0.0
19/10:00am 10.1 8.2 7.5 84 1.3 SW 7 9 4 5 1024.7 1024.9 0.0
19/09:30am 8.5 6.8 7.4 93 0.5 W 6 9 3 5 1024.4 1024.6 0.0
19/09:00am 7.2 5.3 6.6 96 0.3 WNW 6 7 3 4 1024.1 1024.4 0.0
19/08:30am 6.1 5.1 5.7 97 0.2 CALM 0 0 0 0 1023.7 1024.0 0.0
19/08:00am 4.1 2.7 3.7 97 0.2 CALM 0 0 0 0 1023.5 1023.8 0.0
19/07:30am 2.8 1.2 2.2 96 0.2 CALM 0 0 0 0 1023.6 1023.9 0.0
19/07:00am 2.3 0.2 1.7 96 0.2 NE 2 6 1 3 1023.1 1023.4 0.0
19/06:30am 2.3 0.6 1.7 96 0.2 CALM 0 0 0 0 1022.9 1023.2 0.0
19/06:00am 2.2 -0.7 1.5 95 0.3 N 6 9 3 5 1023.0 1023.3 0.0
19/05:30am 3.4 1.8 2.7 95 0.3 CALM 0 6 0 3 1022.4 1022.6 0.0
19/05:00am 2.6 0.2 1.9 95 0.3 WNW 4 7 2 4 1021.9 1022.1 0.0
19/04:30am 3.9 2.4 3.0 94 0.4 CALM 0 0 0 0 1021.6 1021.8 0.0
19/04:00am 4.1 2.6 3.2 94 0.4 CALM 0 0 0 0 1021.6 1021.8 0.0
19/03:30am 4.4 3.0 3.4 93 0.4 CALM 0 4 0 2 1021.4 1021.6 0.0
19/03:00am 5.1 3.8 4.1 93 0.4 CALM 0 0 0 0 1021.3 1021.5 0.0
19/02:30am 5.5 3.1 4.3 92 0.5 WSW 6 7 3 4 1021.2 1021.4 0.0
19/02:00am 6.5 4.7 5.3 92 0.5 W 4 7 2 4 1021.1 1021.3 0.0
19/01:30am 7.0 6.0 5.5 90 0.7 CALM 0 0 0 0 1021.0 1021.2 0.0
19/01:00am 7.9 5.7 6.4 90 0.7 WSW 7 9 4 5 1020.7 1020.9 0.0
19/12:30am 8.7 6.7 7.0 89 0.8 WSW 7 11 4 6 1020.8 1021.0 0.0
19/12:00am 9.2 6.9 7.5 89 0.8 WSW 9 11 5 6 1021.0 1021.2 0.0
 
Date/Time
WST
Temp
°C
App
Temp
°C
Dew
Point
°C
Rel
Hum
%
Delta-T
°C
Wind Press
QNH
hPa
Press
MSL
hPa
Rain since
9am
mm
Dir  Spd
km/h
Gust
km/h
Spd
kts
Gust
kts
18/11:30pm 9.7 7.1 7.8 88 0.9 WSW 11 15 6 8 1021.0 1021.2 0.0
18/11:00pm 10.5 8.9 8.9 90 0.8 WSW 7 11 4 6 1020.6 1020.8 0.0
18/10:30pm 10.8 8.9 9.1 89 0.9 SW 9 15 5 8 1020.7 1020.9 0.0
18/10:00pm 10.6 8.7 9.0 90 0.8 WSW 9 13 5 7 1020.2 1020.5 0.0
18/09:30pm 10.7 8.8 9.0 89 0.9 WSW 9 13 5 7 1019.9 1020.2 0.0
18/09:00pm 11.1 9.2 9.2 88 1.0 SW 9 15 5 8 1019.7 1019.9 0.0
18/08:30pm 11.0 8.7 8.9 87 1.1 SW 11 17 6 9 1019.4 1019.6 0.0
18/08:00pm 11.9 9.3 9.3 84 1.3 WSW 13 19 7 10 1019.2 1019.4 0.0
18/07:30pm 12.1 8.6 8.8 80 1.7 WSW 17 26 9 14 1018.7 1018.9 0.0
18/07:00pm 13.0 9.9 8.9 76 2.1 WSW 15 22 8 12 1018.2 1018.4 0.0
18/06:30pm 12.7 10.8 9.0 78 1.9 W 9 15 5 8 1017.8 1018.0 0.0
18/06:00pm 12.7 10.8 9.0 78 1.9 W 9 11 5 6 1017.5 1017.7 0.0
18/05:30pm 13.2 10.8 8.5 73 2.4 W 11 17 6 9 1017.1 1017.3 0.0
18/05:00pm 13.8 11.4 8.8 72 2.6 W 11 17 6 9 1016.9 1017.0 0.0
18/04:30pm 13.9 10.4 8.9 72 2.6 W 17 26 9 14 1016.7 1016.9 0.0
18/04:00pm 14.1 10.0 7.9 66 3.1 WSW 19 26 10 14 1016.5 1016.7 0.0
18/03:30pm 14.2 10.3 9.4 73 2.5 WSW 20 32 11 17 1016.4 1016.6 0.0
18/03:00pm 15.6 10.2 8.1 61 3.8 WSW 26 41 14 22 1015.9 1016.1 0.0
18/02:30pm 15.5 11.6 8.7 64 3.5 WSW 19 28 10 15 1015.6 1015.8 0.0
18/02:00pm 16.3 11.7 8.0 58 4.2 W 22 32 12 17 1015.3 1015.5 0.0
18/01:30pm 16.2 12.1 7.7 57 4.3 W 19 32 10 17 1015.4 1015.6 0.0
18/01:00pm 15.3 10.2 7.8 61 3.8 W 24 37 13 20 1015.6 1015.8 0.0
18/12:30pm 15.1 10.2 8.6 65 3.3 WNW 24 35 13 19 1015.8 1016.0 0.0
18/12:00pm 15.0 9.7 8.3 64 3.4 WNW 26 37 14 20 1016.1 1016.3 0.0
18/11:30am 14.7 9.0 8.4 66 3.2 WNW 28 46 15 25 1016.2 1016.4 0.0
18/11:23am 15.1 9.4 8.3 64 3.5 WNW 28 46 15 25 1016.1 1016.3 0.0
18/11:00am 14.5 9.1 9.5 72 2.6 WNW 28 37 15 20 1016.1 1016.3 0.0
18/10:30am 13.5 8.5 9.4 76 2.1 WNW 26 39 14 21 1016.1 1016.3 0.0
18/10:00am 12.9 8.6 9.4 79 1.8 WNW 22 32 12 17 1016.3 1016.5 0.0
18/09:30am 12.4 8.1 9.2 81 1.6 WNW 22 32 12 17 1016.3 1016.5 0.0
18/09:00am 11.7 7.7 9.1 84 1.3 NW 20 30 11 16 1016.1 1016.3 0.0
18/08:30am 10.8 6.8 9.1 89 0.9 NW 20 30 11 16 1015.8 1016.0 0.0
18/08:00am 9.5 5.8 7.9 90 0.8 NW 17 26 9 14 1015.6 1015.8 0.0
18/07:30am 9.0 5.2 7.5 90 0.7 NW 17 26 9 14 1015.1 1015.3 0.0
18/07:00am 8.8 5.0 7.4 91 0.7 NW 17 24 9 13 1014.9 1015.1 0.0
18/06:30am 8.8 5.3 7.3 90 0.7 NW 15 22 8 12 1014.6 1014.8 0.0
18/06:00am 8.9 5.4 7.2 89 0.8 NW 15 20 8 11 1014.2 1014.4 0.0
18/05:30am 9.1 6.0 7.4 89 0.8 NW 13 20 7 11 1014.1 1014.3 0.0
18/05:00am 9.0 5.9 7.3 89 0.8 NW 13 20 7 11 1014.0 1014.1 0.0
18/04:30am 8.8 5.7 7.4 91 0.7 NW 13 19 7 10 1013.8 1013.9 0.0
18/04:00am 7.9 4.7 6.8 93 0.5 NW 13 19 7 10 1013.6 1013.7 0.0
18/03:30am 6.5 3.4 5.5 93 0.5 NNW 11 13 6 7 1013.8 1013.9 0.0
18/03:00am 7.0 4.0 5.9 93 0.5 NNW 11 15 6 8 1013.9 1014.0 0.0
18/02:30am 7.2 3.8 6.0 92 0.6 NNW 13 19 7 10 1014.0 1014.1 0.0
18/02:00am 7.4 4.1 6.3 93 0.5 NNW 13 19 7 10 1014.1 1014.3 0.0
18/01:30am 7.3 3.9 6.1 92 0.6 NNW 13 19 7 10 1014.2 1014.4 0.0
18/01:00am 7.2 3.4 5.8 91 0.6 NNW 15 20 8 11 1014.1 1014.3 0.0
18/12:30am 7.6 4.3 6.2 91 0.6 NNW 13 19 7 10 1014.3 1014.5 0.0
18/12:00am 7.9 4.6 6.2 89 0.8 NNW 13 19 7 10 1014.4 1014.6 0.0
 
Date/Time
WST
Temp
°C
App
Temp
°C
Dew
Point
°C
Rel
Hum
%
Delta-T
°C
Wind Press
QNH
hPa
Press
MSL
hPa
Rain since
9am
mm
Dir  Spd
km/h
Gust
km/h
Spd
kts
Gust
kts
17/11:30pm 8.8 4.8 6.6 86 1.0 NNW 17 20 9 11 1014.5 1014.7 0.0
17/11:00pm 9.5 5.9 6.8 83 1.3 NW 15 24 8 13 1014.8 1015.0 0.0
17/10:30pm 10.0 6.4 6.9 81 1.5 NW 15 20 8 11 1015.0 1015.2 0.0
17/10:00pm 10.3 6.3 6.6 78 1.8 NW 17 20 9 11 1015.1 1015.3 0.0
17/09:30pm 10.6 7.0 6.7 77 1.9 NW 15 22 8 12 1015.3 1015.5 0.0
17/09:00pm 10.8 7.5 6.6 75 2.0 NW 13 19 7 10 1015.4 1015.6 0.0
17/08:30pm 11.0 7.0 6.6 74 2.1 NW 17 24 9 13 1015.5 1015.7 0.0

Other Formats:

Comma delimited format used in spreadsheet applications
http://www.bom.gov.au/fwo/IDW60801/IDW60801.95637.axf

JavaScript Object Notation format (JSON) in row-major order
http://www.bom.gov.au/fwo/IDW60801/IDW60801.95637.json